sensor_id;sensor_type;location;lat;lon;timestamp;pressure;altitude;pressure_sealevel;temperature;humidity
55550;BME280;41397;49.972;18.944;2023-03-23T00:00:44;101393.95;;;15.04;56.97
55550;BME280;41397;49.972;18.944;2023-03-23T00:03:52;101386.09;;;14.99;57.24
55550;BME280;41397;49.972;18.944;2023-03-23T00:06:57;101384.64;;;14.95;57.46
55550;BME280;41397;49.972;18.944;2023-03-23T00:10:04;101379.55;;;14.91;57.47
55550;BME280;41397;49.972;18.944;2023-03-23T00:13:05;101388.09;;;14.87;57.69
55550;BME280;41397;49.972;18.944;2023-03-23T00:16:07;101386.93;;;14.90;57.53
55550;BME280;41397;49.972;18.944;2023-03-23T00:19:20;101381.71;;;14.87;57.74
55550;BME280;41397;49.972;18.944;2023-03-23T00:22:22;101389.36;;;14.83;57.66
55550;BME280;41397;49.972;18.944;2023-03-23T00:25:29;101387.75;;;14.81;57.71
55550;BME280;41397;49.972;18.944;2023-03-23T00:28:35;101391.53;;;14.80;57.92
55550;BME280;41397;49.972;18.944;2023-03-23T00:31:36;101391.53;;;14.80;57.94
55550;BME280;41397;49.972;18.944;2023-03-23T00:34:38;101392.67;;;14.77;57.93
55550;BME280;41397;49.972;18.944;2023-03-23T00:37:41;101397.44;;;14.75;58.17
55550;BME280;41397;49.972;18.944;2023-03-23T00:40:45;101400.47;;;14.72;58.29
55550;BME280;41397;49.972;18.944;2023-03-23T00:43:48;101402.24;;;14.73;58.18
55550;BME280;41397;49.972;18.944;2023-03-23T00:46:49;101397.88;;;14.71;58.05
55550;BME280;41397;49.972;18.944;2023-03-23T00:49:51;101397.26;;;14.67;58.19
55550;BME280;41397;49.972;18.944;2023-03-23T00:52:56;101407.41;;;14.67;58.08
55550;BME280;41397;49.972;18.944;2023-03-23T00:55:57;101401.31;;;14.63;58.24
55550;BME280;41397;49.972;18.944;2023-03-23T00:58:59;101400.57;;;14.61;58.36
55550;BME280;41397;49.972;18.944;2023-03-23T01:02:00;101406.34;;;14.58;58.02
55550;BME280;41397;49.972;18.944;2023-03-23T01:05:02;101405.10;;;14.51;58.25
55550;BME280;41397;49.972;18.944;2023-03-23T01:08:05;101401.77;;;14.47;58.42
55550;BME280;41397;49.972;18.944;2023-03-23T01:11:07;101398.54;;;14.42;58.35
55550;BME280;41397;49.972;18.944;2023-03-23T01:14:09;101405.18;;;14.39;58.50
55550;BME280;41397;49.972;18.944;2023-03-23T01:17:11;101404.59;;;14.36;58.53
55550;BME280;41397;49.972;18.944;2023-03-23T01:20:15;101404.71;;;14.34;58.78
55550;BME280;41397;49.972;18.944;2023-03-23T01:23:16;101397.60;;;14.32;58.61
55550;BME280;41397;49.972;18.944;2023-03-23T01:26:20;101402.39;;;14.30;58.80
55550;BME280;41397;49.972;18.944;2023-03-23T01:29:21;101406.13;;;14.29;58.76
55550;BME280;41397;49.972;18.944;2023-03-23T01:32:23;101410.88;;;14.27;58.64
55550;BME280;41397;49.972;18.944;2023-03-23T01:35:24;101413.79;;;14.25;58.92
55550;BME280;41397;49.972;18.944;2023-03-23T01:38:26;101408.41;;;14.24;59.00
55550;BME280;41397;49.972;18.944;2023-03-23T01:41:27;101406.68;;;14.23;59.06
55550;BME280;41397;49.972;18.944;2023-03-23T01:47:43;101405.06;;;14.20;59.18
55550;BME280;41397;49.972;18.944;2023-03-23T01:54:00;101388.08;;;14.15;59.10
55550;BME280;41397;49.972;18.944;2023-03-23T01:57:07;101390.98;;;14.13;59.30
55550;BME280;41397;49.972;18.944;2023-03-23T02:00:16;101386.74;;;14.09;59.16
55550;BME280;41397;49.972;18.944;2023-03-23T02:03:19;101383.41;;;14.06;59.25
55550;BME280;41397;49.972;18.944;2023-03-23T02:06:21;101383.24;;;14.07;59.41
55550;BME280;41397;49.972;18.944;2023-03-23T02:09:27;101390.78;;;14.05;59.78
55550;BME280;41397;49.972;18.944;2023-03-23T02:12:28;101384.53;;;14.03;60.00
55550;BME280;41397;49.972;18.944;2023-03-23T02:16:24;101374.29;;;14.05;59.86
55550;BME280;41397;49.972;18.944;2023-03-23T02:18:52;101372.40;;;14.06;59.91
55550;BME280;41397;49.972;18.944;2023-03-23T02:28:37;101366.63;;;14.09;59.80
55550;BME280;41397;49.972;18.944;2023-03-23T02:31:45;101365.48;;;14.11;59.90
55550;BME280;41397;49.972;18.944;2023-03-23T02:34:53;101362.85;;;14.10;59.87
55550;BME280;41397;49.972;18.944;2023-03-23T02:41:11;101364.73;;;14.09;60.26
55550;BME280;41397;49.972;18.944;2023-03-23T02:44:15;101350.23;;;14.07;60.21
55550;BME280;41397;49.972;18.944;2023-03-23T02:47:20;101353.62;;;14.11;60.00
55550;BME280;41397;49.972;18.944;2023-03-23T02:50:25;101347.22;;;14.10;60.22
55550;BME280;41397;49.972;18.944;2023-03-23T02:53:29;101343.60;;;14.10;60.00
55550;BME280;41397;49.972;18.944;2023-03-23T02:56:32;101349.73;;;14.13;60.27
55550;BME280;41397;49.972;18.944;2023-03-23T02:59:35;101343.33;;;14.13;60.21
55550;BME280;41397;49.972;18.944;2023-03-23T03:02:39;101337.71;;;14.14;60.40
55550;BME280;41397;49.972;18.944;2023-03-23T03:09:09;101335.98;;;14.13;60.44
55550;BME280;41397;49.972;18.944;2023-03-23T03:12:24;101335.98;;;14.13;60.27
55550;BME280;41397;49.972;18.944;2023-03-23T03:15:33;101336.09;;;14.12;60.45
55550;BME280;41397;49.972;18.944;2023-03-23T03:21:54;101330.59;;;14.12;60.19
55550;BME280;41397;49.972;18.944;2023-03-23T03:24:59;101338.85;;;14.12;60.30
55550;BME280;41397;49.972;18.944;2023-03-23T03:28:02;101338.85;;;14.12;60.24
55550;BME280;41397;49.972;18.944;2023-03-23T03:31:08;101344.62;;;14.09;60.27
55550;BME280;41397;49.972;18.944;2023-03-23T03:34:10;101338.38;;;14.07;60.24
55550;BME280;41397;49.972;18.944;2023-03-23T03:37:11;101344.74;;;14.07;60.35
55550;BME280;41397;49.972;18.944;2023-03-23T03:40:19;101344.89;;;14.06;60.34
55550;BME280;41397;49.972;18.944;2023-03-23T03:43:21;101340.26;;;14.06;60.34
55550;BME280;41397;49.972;18.944;2023-03-23T03:46:23;101348.51;;;14.06;60.16
55550;BME280;41397;49.972;18.944;2023-03-23T03:49:30;101344.74;;;14.07;60.17
55550;BME280;41397;49.972;18.944;2023-03-23T03:52:31;101342.89;;;14.08;60.17
55550;BME280;41397;49.972;18.944;2023-03-23T03:55:33;101345.49;;;14.09;60.05
55550;BME280;41397;49.972;18.944;2023-03-23T03:58:45;101339.98;;;14.09;59.96
55550;BME280;41397;49.972;18.944;2023-03-23T04:01:49;101346.08;;;14.13;59.92
55550;BME280;41397;49.972;18.944;2023-03-23T04:04:55;101346.97;;;14.13;59.92
55550;BME280;41397;49.972;18.944;2023-03-23T04:07:56;101339.88;;;14.11;59.81
55550;BME280;41397;49.972;18.944;2023-03-23T04:11:02;101351.19;;;14.17;59.83
55550;BME280;41397;49.972;18.944;2023-03-23T04:14:11;101344.66;;;14.18;59.98
55550;BME280;41397;49.972;18.944;2023-03-23T04:17:12;101346.27;;;14.21;59.83
55550;BME280;41397;49.972;18.944;2023-03-23T04:20:17;101353.39;;;14.24;59.71
55550;BME280;41397;49.972;18.944;2023-03-23T04:23:20;101344.42;;;14.21;59.90
55550;BME280;41397;49.972;18.944;2023-03-23T04:26:23;101345.13;;;14.24;59.64
55550;BME280;41397;49.972;18.944;2023-03-23T04:29:24;101333.86;;;14.27;59.47
55550;BME280;41397;49.972;18.944;2023-03-23T04:32:26;101337.23;;;14.30;59.62
55550;BME280;41397;49.972;18.944;2023-03-23T04:35:29;101338.95;;;14.31;59.44
55550;BME280;41397;49.972;18.944;2023-03-23T04:38:31;101326.97;;;14.32;59.28
55550;BME280;41397;49.972;18.944;2023-03-23T04:41:35;101323.03;;;14.35;59.31
55550;BME280;41397;49.972;18.944;2023-03-23T04:44:36;101330.30;;;14.36;59.10
55550;BME280;41397;49.972;18.944;2023-03-23T04:47:38;101326.53;;;14.37;59.06
55550;BME280;41397;49.972;18.944;2023-03-23T04:50:43;101327.39;;;14.37;59.18
55550;BME280;41397;49.972;18.944;2023-03-23T04:53:44;101320.74;;;14.40;59.03
55550;BME280;41397;49.972;18.944;2023-03-23T04:56:46;101316.14;;;14.40;58.82
55550;BME280;41397;49.972;18.944;2023-03-23T04:59:47;101323.38;;;14.41;58.91
55550;BME280;41397;49.972;18.944;2023-03-23T05:06:20;101328.20;;;14.49;58.67
55550;BME280;41397;49.972;18.944;2023-03-23T05:09:22;101334.41;;;14.51;58.73
55550;BME280;41397;49.972;18.944;2023-03-23T05:12:23;101325.66;;;14.57;58.55
55550;BME280;41397;49.972;18.944;2023-03-23T05:18:57;101329.05;;;14.71;58.08
55550;BME280;41397;49.972;18.944;2023-03-23T05:22:05;101322.40;;;14.73;57.93
55550;BME280;41397;49.972;18.944;2023-03-23T05:25:08;101335.14;;;14.84;57.73
55550;BME280;41397;49.972;18.944;2023-03-23T05:28:11;101351.27;;;14.88;57.88
55550;BME280;41397;49.972;18.944;2023-03-23T05:31:13;101355.22;;;14.96;57.97
55550;BME280;41397;49.972;18.944;2023-03-23T05:34:14;101341.16;;;14.99;58.03
55550;BME280;41397;49.972;18.944;2023-03-23T05:40:57;101345.11;;;15.16;57.94
55550;BME280;41397;49.972;18.944;2023-03-23T05:51:13;101326.73;;;15.65;57.36
55550;BME280;41397;49.972;18.944;2023-03-23T05:54:15;101331.53;;;15.82;56.88
55550;BME280;41397;49.972;18.944;2023-03-23T06:00:30;101331.62;;;16.29;55.94
55550;BME280;41397;49.972;18.944;2023-03-23T06:03:37;101342.70;;;16.57;55.97
55550;BME280;41397;49.972;18.944;2023-03-23T06:06:42;101353.50;;;16.88;56.11
55550;BME280;41397;49.972;18.944;2023-03-23T06:09:44;101348.83;;;17.16;54.91
55550;BME280;41397;49.972;18.944;2023-03-23T06:12:46;101343.89;;;17.37;53.90
55550;BME280;41397;49.972;18.944;2023-03-23T06:15:48;101341.15;;;17.55;52.83
55550;BME280;41397;49.972;18.944;2023-03-23T06:22:31;101335.41;;;17.84;52.17
55550;BME280;41397;49.972;18.944;2023-03-23T06:28:58;101334.84;;;17.99;50.99
55550;BME280;41397;49.972;18.944;2023-03-23T06:32:01;101333.86;;;18.08;50.74
55550;BME280;41397;49.972;18.944;2023-03-23T06:35:04;101326.41;;;18.08;50.82
55550;BME280;41397;49.972;18.944;2023-03-23T06:38:12;101325.94;;;18.13;50.35
55550;BME280;41397;49.972;18.944;2023-03-23T06:44:43;101324.36;;;18.10;50.00
55550;BME280;41397;49.972;18.944;2023-03-23T06:47:46;101322.78;;;18.08;49.68
55550;BME280;41397;49.972;18.944;2023-03-23T06:50:50;101320.13;;;18.24;56.15
55550;BME280;41397;49.972;18.944;2023-03-23T07:01:11;101311.49;;;18.88;63.01
55550;BME280;41397;49.972;18.944;2023-03-23T07:04:13;101319.69;;;18.97;57.85
55550;BME280;41397;49.972;18.944;2023-03-23T07:07:18;101332.74;;;19.13;62.46
55550;BME280;41397;49.972;18.944;2023-03-23T07:10:30;101332.23;;;19.26;60.28
55550;BME280;41397;49.972;18.944;2023-03-23T07:13:34;101327.77;;;19.41;57.95
55550;BME280;41397;49.972;18.944;2023-03-23T07:16:36;101328.84;;;19.48;57.27
55550;BME280;41397;49.972;18.944;2023-03-23T07:19:38;101321.55;;;19.56;55.51
55550;BME280;41397;49.972;18.944;2023-03-23T07:22:40;101322.25;;;19.58;54.73
55550;BME280;41397;49.972;18.944;2023-03-23T07:25:43;101323.70;;;19.70;55.67
55550;BME280;41397;49.972;18.944;2023-03-23T07:28:45;101326.48;;;19.78;55.55
55550;BME280;41397;49.972;18.944;2023-03-23T07:31:47;101325.60;;;19.86;56.90
55550;BME280;41397;49.972;18.944;2023-03-23T07:41:35;101319.96;;;19.45;47.34
55550;BME280;41397;49.972;18.944;2023-03-23T07:44:41;101326.87;;;19.24;47.22
55550;BME280;41397;49.972;18.944;2023-03-23T07:47:43;101335.52;;;19.13;47.02
55550;BME280;41397;49.972;18.944;2023-03-23T07:50:44;101330.65;;;19.07;47.79
55550;BME280;41397;49.972;18.944;2023-03-23T07:53:47;101338.74;;;19.00;47.20
55550;BME280;41397;49.972;18.944;2023-03-23T07:56:49;101337.70;;;19.01;47.56
55550;BME280;41397;49.972;18.944;2023-03-23T07:59:51;101346.57;;;19.05;47.11
55550;BME280;41397;49.972;18.944;2023-03-23T08:02:54;101335.86;;;19.10;47.03
55550;BME280;41397;49.972;18.944;2023-03-23T08:05:58;101337.95;;;19.16;48.23
55550;BME280;41397;49.972;18.944;2023-03-23T08:09:00;101336.92;;;19.25;46.59
55550;BME280;41397;49.972;18.944;2023-03-23T08:12:09;101339.38;;;19.37;46.82
55550;BME280;41397;49.972;18.944;2023-03-23T08:15:12;101334.73;;;19.45;46.29
55550;BME280;41397;49.972;18.944;2023-03-23T08:18:16;101344.09;;;19.52;46.37
55550;BME280;41397;49.972;18.944;2023-03-23T08:21:18;101348.80;;;19.60;46.80
55550;BME280;41397;49.972;18.944;2023-03-23T08:24:25;101349.15;;;19.65;46.71
55550;BME280;41397;49.972;18.944;2023-03-23T08:27:27;101340.16;;;19.71;46.86
55550;BME280;41397;49.972;18.944;2023-03-23T08:30:29;101339.80;;;19.66;46.51
55550;BME280;41397;49.972;18.944;2023-03-23T08:33:33;101349.19;;;19.73;45.87
55550;BME280;41397;49.972;18.944;2023-03-23T08:36:35;101347.28;;;19.82;45.80
55550;BME280;41397;49.972;18.944;2023-03-23T08:39:39;101351.28;;;19.96;46.24
55550;BME280;41397;49.972;18.944;2023-03-23T08:42:43;101347.12;;;20.16;45.77
55550;BME280;41397;49.972;18.944;2023-03-23T08:45:44;101344.32;;;20.33;45.49
55550;BME280;41397;49.972;18.944;2023-03-23T08:48:47;101347.23;;;20.48;45.27
55550;BME280;41397;49.972;18.944;2023-03-23T08:51:48;101339.39;;;20.68;43.59
55550;BME280;41397;49.972;18.944;2023-03-23T08:54:50;101332.38;;;20.88;42.95
55550;BME280;41397;49.972;18.944;2023-03-23T08:57:51;101324.66;;;21.06;42.95
55550;BME280;41397;49.972;18.944;2023-03-23T09:00:53;101329.77;;;21.26;42.38
55550;BME280;41397;49.972;18.944;2023-03-23T09:03:54;101315.42;;;21.45;41.90
55550;BME280;41397;49.972;18.944;2023-03-23T09:06:56;101320.13;;;21.68;42.02
55550;BME280;41397;49.972;18.944;2023-03-23T09:09:58;101313.09;;;21.80;39.79
55550;BME280;41397;49.972;18.944;2023-03-23T09:13:02;101306.87;;;21.93;41.37
55550;BME280;41397;49.972;18.944;2023-03-23T09:16:14;101318.37;;;22.13;40.95
55550;BME280;41397;49.972;18.944;2023-03-23T09:19:15;101331.35;;;22.21;39.74
55550;BME280;41397;49.972;18.944;2023-03-23T09:22:17;101326.59;;;22.29;40.45
55550;BME280;41397;49.972;18.944;2023-03-23T09:25:26;101326.30;;;22.39;39.34
55550;BME280;41397;49.972;18.944;2023-03-23T09:28:28;101326.73;;;22.51;39.64
55550;BME280;41397;49.972;18.944;2023-03-23T09:31:31;101333.71;;;22.61;39.57
55550;BME280;41397;49.972;18.944;2023-03-23T09:34:33;101325.55;;;22.75;39.25
55550;BME280;41397;49.972;18.944;2023-03-23T09:37:39;101320.37;;;22.87;39.40
55550;BME280;41397;49.972;18.944;2023-03-23T09:40:47;101332.30;;;22.95;39.18
55550;BME280;41397;49.972;18.944;2023-03-23T09:43:58;101326.41;;;22.90;37.96
55550;BME280;41397;49.972;18.944;2023-03-23T09:47:15;101337.29;;;22.85;38.27
55550;BME280;41397;49.972;18.944;2023-03-23T09:50:22;101335.66;;;22.76;39.00
55550;BME280;41397;49.972;18.944;2023-03-23T09:53:36;101324.11;;;22.64;38.75
55550;BME280;41397;49.972;18.944;2023-03-23T10:03:43;101314.32;;;22.68;38.77
55550;BME280;41397;49.972;18.944;2023-03-23T10:06:45;101309.71;;;22.75;39.54
55550;BME280;41397;49.972;18.944;2023-03-23T10:27:02;101298.70;;;22.89;36.56
55550;BME280;41397;49.972;18.944;2023-03-23T10:40:18;101302.96;;;22.85;35.83
55550;BME280;41397;49.972;18.944;2023-03-23T10:43:21;101298.45;;;22.69;35.67
55550;BME280;41397;49.972;18.944;2023-03-23T10:49:45;101289.50;;;22.58;35.94
55550;BME280;41397;49.972;18.944;2023-03-23T10:52:50;101292.68;;;22.55;36.33
55550;BME280;41397;49.972;18.944;2023-03-23T10:56:00;101302.28;;;22.53;36.98
55550;BME280;41397;49.972;18.944;2023-03-23T11:02:17;101285.48;;;22.46;37.27
55550;BME280;41397;49.972;18.944;2023-03-23T11:05:21;101292.68;;;22.41;37.43
55550;BME280;41397;49.972;18.944;2023-03-23T11:08:30;101291.70;;;22.33;37.29
55550;BME280;41397;49.972;18.944;2023-03-23T11:11:40;101295.70;;;22.16;37.28
55550;BME280;41397;49.972;18.944;2023-03-23T11:18:36;101282.62;;;22.02;37.13
55550;BME280;41397;49.972;18.944;2023-03-23T11:22:05;101286.63;;;21.99;37.34
55550;BME280;41397;49.972;18.944;2023-03-23T11:25:04;101289.22;;;22.01;37.58
55550;BME280;41397;49.972;18.944;2023-03-23T11:28:08;101286.63;;;21.99;38.00
55550;BME280;41397;49.972;18.944;2023-03-23T11:31:13;101286.44;;;22.01;37.88
55550;BME280;41397;49.972;18.944;2023-03-23T11:34:22;101286.63;;;21.99;37.68
55550;BME280;41397;49.972;18.944;2023-03-23T11:44:23;101285.56;;;22.00;37.54
55550;BME280;41397;49.972;18.944;2023-03-23T11:47:38;101281.07;;;21.99;37.71
55550;BME280;41397;49.972;18.944;2023-03-23T12:04:03;101270.97;;;21.98;37.89
55550;BME280;41397;49.972;18.944;2023-03-23T12:15:32;101271.97;;;21.82;38.83
55550;BME280;41397;49.972;18.944;2023-03-23T12:21:08;101276.45;;;21.68;38.86
55550;BME280;41397;49.972;18.944;2023-03-23T12:24:17;101272.18;;;21.58;38.83
55550;BME280;41397;49.972;18.944;2023-03-23T12:30:45;101260.94;;;21.51;39.21
55550;BME280;41397;49.972;18.944;2023-03-23T12:50:13;101263.13;;;21.33;39.60
55550;BME280;41397;49.972;18.944;2023-03-23T12:53:22;101253.38;;;21.37;39.65
55550;BME280;41397;49.972;18.944;2023-03-23T13:00:03;101262.93;;;21.42;39.95
55550;BME280;41397;49.972;18.944;2023-03-23T13:03:17;101260.46;;;21.47;40.11
55550;BME280;41397;49.972;18.944;2023-03-23T13:16:32;101244.96;;;21.68;40.68
55550;BME280;41397;49.972;18.944;2023-03-23T13:23:42;101230.04;;;21.84;40.45
55550;BME280;41397;49.972;18.944;2023-03-23T13:29:52;101234.45;;;21.93;39.77
55550;BME280;41397;49.972;18.944;2023-03-23T13:43:08;101224.98;;;22.02;39.20
55550;BME280;41397;49.972;18.944;2023-03-23T13:49:22;101215.69;;;22.10;39.32
55550;BME280;41397;49.972;18.944;2023-03-23T14:09:37;101202.17;;;22.22;38.92
55550;BME280;41397;49.972;18.944;2023-03-23T14:16:03;101201.84;;;22.16;38.96
55550;BME280;41397;49.972;18.944;2023-03-23T14:33:04;101209.90;;;21.97;38.52
55550;BME280;41397;49.972;18.944;2023-03-23T14:39:29;101188.37;;;21.90;38.98
55550;BME280;41397;49.972;18.944;2023-03-23T14:45:55;101199.88;;;21.87;38.62
55550;BME280;41397;49.972;18.944;2023-03-23T14:49:01;101201.13;;;21.85;38.71
55550;BME280;41397;49.972;18.944;2023-03-23T14:55:31;101203.13;;;21.76;38.80
55550;BME280;41397;49.972;18.944;2023-03-23T14:58:32;101199.11;;;21.79;38.78
55550;BME280;41397;49.972;18.944;2023-03-23T15:01:36;101202.75;;;21.79;38.98
55550;BME280;41397;49.972;18.944;2023-03-23T15:04:42;101195.47;;;21.78;38.97
55550;BME280;41397;49.972;18.944;2023-03-23T15:07:49;101206.60;;;21.78;39.21
55550;BME280;41397;49.972;18.944;2023-03-23T15:10:54;101201.21;;;21.77;39.04
55550;BME280;41397;49.972;18.944;2023-03-23T15:13:59;101193.06;;;21.75;39.12
55550;BME280;41397;49.972;18.944;2023-03-23T15:17:05;101200.91;;;21.71;39.45
55550;BME280;41397;49.972;18.944;2023-03-23T15:23:27;101192.16;;;21.60;39.51
55550;BME280;41397;49.972;18.944;2023-03-23T15:26:34;101197.25;;;21.56;39.64
55550;BME280;41397;49.972;18.944;2023-03-23T15:29:45;101200.57;;;21.52;39.81
55550;BME280;41397;49.972;18.944;2023-03-23T15:32:49;101200.27;;;21.46;39.88
55550;BME280;41397;49.972;18.944;2023-03-23T15:35:54;101192.69;;;21.40;39.86
55550;BME280;41397;49.972;18.944;2023-03-23T15:38:57;101194.95;;;21.37;40.14
55550;BME280;41397;49.972;18.944;2023-03-23T15:42:00;101195.67;;;21.31;40.03
55550;BME280;41397;49.972;18.944;2023-03-23T15:48:17;101198.17;;;21.25;40.65
55550;BME280;41397;49.972;18.944;2023-03-23T15:51:21;101190.38;;;21.21;40.46
55550;BME280;41397;49.972;18.944;2023-03-23T15:57:56;101190.92;;;21.16;40.61
55550;BME280;41397;49.972;18.944;2023-03-23T16:01:01;101189.20;;;21.15;40.73
55550;BME280;41397;49.972;18.944;2023-03-23T16:04:14;101198.58;;;21.14;40.87
55550;BME280;41397;49.972;18.944;2023-03-23T16:07:21;101198.95;;;21.11;41.14
55550;BME280;41397;49.972;18.944;2023-03-23T16:10:29;101203.85;;;21.09;41.29
55550;BME280;41397;49.972;18.944;2023-03-23T16:13:31;101193.77;;;21.08;41.40
55550;BME280;41397;49.972;18.944;2023-03-23T16:16:39;101205.09;;;21.06;41.42
55550;BME280;41397;49.972;18.944;2023-03-23T16:19:42;101201.61;;;21.04;41.28
55550;BME280;41397;49.972;18.944;2023-03-23T16:22:45;101206.48;;;21.02;41.41
55550;BME280;41397;49.972;18.944;2023-03-23T16:25:47;101209.64;;;20.99;41.68
55550;BME280;41397;49.972;18.944;2023-03-23T16:28:51;101210.17;;;20.95;41.64
55550;BME280;41397;49.972;18.944;2023-03-23T16:31:53;101223.59;;;20.91;41.97
55550;BME280;41397;49.972;18.944;2023-03-23T16:34:54;101214.94;;;20.86;42.34
55550;BME280;41397;49.972;18.944;2023-03-23T16:37:56;101207.66;;;20.85;42.17
55550;BME280;41397;49.972;18.944;2023-03-23T16:42:26;101203.86;;;20.78;42.36
55550;BME280;41397;49.972;18.944;2023-03-23T16:45:27;101204.96;;;20.69;42.14
55550;BME280;41397;49.972;18.944;2023-03-23T16:48:30;101218.85;;;20.69;42.33
55550;BME280;41397;49.972;18.944;2023-03-23T16:51:34;101223.89;;;20.65;42.20
55550;BME280;41397;49.972;18.944;2023-03-23T16:54:35;101221.48;;;20.62;42.01
55550;BME280;41397;49.972;18.944;2023-03-23T16:57:37;101227.60;;;20.57;42.15
55550;BME280;41397;49.972;18.944;2023-03-23T17:00:41;101231.60;;;20.55;41.99
55550;BME280;41397;49.972;18.944;2023-03-23T17:03:42;101230.38;;;20.49;42.12
55550;BME280;41397;49.972;18.944;2023-03-23T17:06:44;101233.33;;;20.48;42.29
55550;BME280;41397;49.972;18.944;2023-03-23T17:09:46;101236.30;;;20.46;42.35
55550;BME280;41397;49.972;18.944;2023-03-23T17:12:55;101242.19;;;20.43;42.42
55550;BME280;41397;49.972;18.944;2023-03-23T17:15:56;101233.72;;;20.36;42.42
55550;BME280;41397;49.972;18.944;2023-03-23T17:19:02;101239.44;;;20.35;42.47
55550;BME280;41397;49.972;18.944;2023-03-23T17:22:06;101232.52;;;20.31;42.42
55550;BME280;41397;49.972;18.944;2023-03-23T17:25:15;101236.52;;;20.28;42.42
55550;BME280;41397;49.972;18.944;2023-03-23T17:28:20;101246.44;;;20.23;42.80
55550;BME280;41397;49.972;18.944;2023-03-23T17:35:01;101250.95;;;20.15;42.22
55550;BME280;41397;49.972;18.944;2023-03-23T17:38:20;101246.11;;;20.09;42.31
55550;BME280;41397;49.972;18.944;2023-03-23T17:41:22;101243.70;;;20.06;42.29
55550;BME280;41397;49.972;18.944;2023-03-23T17:44:24;101255.66;;;20.07;42.45
55550;BME280;41397;49.972;18.944;2023-03-23T17:47:38;101258.80;;;20.04;42.63
55550;BME280;41397;49.972;18.944;2023-03-23T17:50:59;101262.95;;;20.00;42.43
55550;BME280;41397;49.972;18.944;2023-03-23T17:57:32;101278.94;;;19.98;42.77
55550;BME280;41397;49.972;18.944;2023-03-23T18:00:35;101257.09;;;19.94;42.88
55550;BME280;41397;49.972;18.944;2023-03-23T18:03:37;101253.61;;;19.92;42.98
55550;BME280;41397;49.972;18.944;2023-03-23T18:06:39;101242.67;;;19.83;43.44
55550;BME280;41397;49.972;18.944;2023-03-23T18:09:42;101238.35;;;19.80;43.29
55550;BME280;41397;49.972;18.944;2023-03-23T18:12:44;101234.00;;;19.78;43.83
55550;BME280;41397;49.972;18.944;2023-03-23T18:36:28;101291.38;;;19.52;44.57
55550;BME280;41397;49.972;18.944;2023-03-23T18:42:54;101301.63;;;19.52;44.71
55550;BME280;41397;49.972;18.944;2023-03-23T20:16:22;101306.58;;;19.16;46.86
55550;BME280;41397;49.972;18.944;2023-03-23T20:23:06;101324.92;;;19.08;47.25
55550;BME280;41397;49.972;18.944;2023-03-23T20:29:46;101333.05;;;19.02;47.38
55550;BME280;41397;49.972;18.944;2023-03-23T20:36:31;101343.43;;;19.00;47.15
55550;BME280;41397;49.972;18.944;2023-03-23T20:39:48;101340.13;;;18.96;47.50
55550;BME280;41397;49.972;18.944;2023-03-23T20:42:51;101339.24;;;18.96;47.36
55550;BME280;41397;49.972;18.944;2023-03-23T20:46:01;101343.21;;;18.93;47.36
55550;BME280;41397;49.972;18.944;2023-03-23T20:49:07;101340.44;;;18.93;47.09
55550;BME280;41397;49.972;18.944;2023-03-23T20:52:27;101337.85;;;18.92;47.24
55550;BME280;41397;49.972;18.944;2023-03-23T20:55:29;101348.60;;;18.95;47.37
55550;BME280;41397;49.972;18.944;2023-03-23T20:58:37;101348.08;;;18.91;47.31
55550;BME280;41397;49.972;18.944;2023-03-23T21:01:53;101347.89;;;18.93;47.51
55550;BME280;41397;49.972;18.944;2023-03-23T21:05:25;101359.31;;;18.90;47.22
55550;BME280;41397;49.972;18.944;2023-03-23T21:08:39;101346.16;;;18.92;47.03
55550;BME280;41397;49.972;18.944;2023-03-23T21:15:05;101357.25;;;18.92;46.91
55550;BME280;41397;49.972;18.944;2023-03-23T21:18:09;101343.39;;;18.92;47.08
55550;BME280;41397;49.972;18.944;2023-03-23T21:21:24;101353.62;;;18.91;46.98
55550;BME280;41397;49.972;18.944;2023-03-23T21:31:38;101340.63;;;18.92;46.95
55550;BME280;41397;49.972;18.944;2023-03-23T21:34:52;101333.36;;;18.91;47.05
55550;BME280;41397;49.972;18.944;2023-03-23T21:37:58;101335.56;;;18.87;46.74
55550;BME280;41397;49.972;18.944;2023-03-23T21:44:15;101347.18;;;18.82;47.14
55550;BME280;41397;49.972;18.944;2023-03-23T21:47:18;101359.27;;;18.81;47.29
55550;BME280;41397;49.972;18.944;2023-03-23T21:50:21;101366.01;;;18.79;47.18
55550;BME280;41397;49.972;18.944;2023-03-23T21:56:49;101366.88;;;18.79;47.16
55550;BME280;41397;49.972;18.944;2023-03-23T22:00:00;101370.69;;;18.78;47.11
55550;BME280;41397;49.972;18.944;2023-03-23T22:03:15;101370.69;;;18.78;47.13
55550;BME280;41397;49.972;18.944;2023-03-23T22:06:20;101372.61;;;18.78;47.38
55550;BME280;41397;49.972;18.944;2023-03-23T22:09:26;101376.24;;;18.78;47.37
55550;BME280;41397;49.972;18.944;2023-03-23T22:12:28;101361.67;;;18.76;47.54
55550;BME280;41397;49.972;18.944;2023-03-23T22:15:30;101361.10;;;18.73;47.68
55550;BME280;41397;49.972;18.944;2023-03-23T22:18:32;101368.56;;;18.72;47.83
55550;BME280;41397;49.972;18.944;2023-03-23T22:21:34;101377.02;;;18.71;47.90
55550;BME280;41397;49.972;18.944;2023-03-23T22:24:36;101366.98;;;18.70;47.75
55550;BME280;41397;49.972;18.944;2023-03-23T22:27:38;101366.27;;;18.68;48.00
55550;BME280;41397;49.972;18.944;2023-03-23T22:30:42;101369.22;;;18.66;48.08
55550;BME280;41397;49.972;18.944;2023-03-23T22:33:45;101374.05;;;18.64;47.86
55550;BME280;41397;49.972;18.944;2023-03-23T22:36:47;101369.85;;;18.60;48.22